Data for 01/12/2015

Time Sea-Level Adjusted Pressure Absolute Pressure Temperature Relative Humidity Dew Point   
(mb) (inHg) (mb) (inHg) (C) (F) (%) (C) (F)
00:05 1023 30.21 852 25.16 -5.7 21.8 80 -8.5 16.6
00:10 1023 30.21 852 25.16 -5.6 21.9 80 -8.5 16.6
00:15 1023 30.21 852 25.16 -5.6 21.9 80 -8.5 16.6
00:20 1023 30.21 852 25.16 -5.6 21.9 80 -8.6 16.5
00:25 1023 30.21 852 25.16 -5.6 21.9 79 -8.7 16.3
00:30 1023 30.21 852 25.16 -5.6 22 78 -8.7 16.3
00:35 1023 30.21 852 25.16 -5.5 22.1 78 -8.8 16.2
00:40 1023 30.21 852 25.16 -5.4 22.2 78 -8.7 16.3
00:45 1023 30.21 852 25.16 -5.5 22.2 78 -8.8 16.2
00:50 1023 30.21 852 25.16 -5.5 22.1 78 -8.8 16.2
00:55 1023 30.21 852 25.16 -5.5 22.2 78 -8.8 16.2
01:00 1023 30.21 852 25.16 -5.5 22.2 78 -8.7 16.3
01:05 1023 30.21 852 25.16 -5.4 22.3 78 -8.7 16.3
01:10 1023 30.21 852 25.16 -5.3 22.4 77 -8.7 16.3
01:15 1023 30.21 852 25.16 -5.2 22.6 77 -8.7 16.4
01:20 1023 30.21 852 25.16 -5.2 22.7 77 -8.7 16.4
01:25 1023 30.21 852 25.16 -5.2 22.7 76 -8.7 16.3
01:30 1023 30.21 852 25.16 -5.3 22.5 77 -8.8 16.2
01:35 1023 30.21 852 25.16 -5.3 22.5 76 -8.8 16.1
01:40 1023 30.21 852 25.16 -5.3 22.4 77 -8.7 16.3
01:45 1023 30.21 852 25.16 -5.4 22.4 76 -8.9 16
01:50 1023 30.21 852 25.16 -5.4 22.3 76 -8.9 15.9
01:55 1023 30.21 852 25.16 -5.5 22.1 76 -9 15.8
02:00 1023 30.21 852 25.16 -5.5 22.1 76 -9.1 15.7
02:05 1023 30.21 852 25.16 -5.6 22 76 -9.1 15.6
02:10 1023 30.21 852 25.16 -5.6 22 76 -9.2 15.5
02:15 1023 30.21 852 25.16 -5.6 21.9 76 -9.2 15.4
02:20 1023 30.21 852 25.16 -5.7 21.8 76 -9.2 15.4
02:25 1023 30.21 852 25.16 -5.7 21.8 76 -9.2 15.4
02:30 1023 30.21 852 25.16 -5.6 21.9 76 -9.3 15.3
02:35 1023 30.21 852 25.16 -5.6 21.9 76 -9.2 15.4
02:40 1023 30.21 852 25.16 -5.6 22 76 -9.2 15.5
02:45 1023 30.21 852 25.16 -5.5 22.1 75 -9.3 15.3
02:50 1023 30.21 852 25.16 -5.6 22 75 -9.3 15.2
02:55 1023 30.21 852 25.16 -5.6 22 75 -9.3 15.2
03:00 1023 30.21 852 25.16 -5.5 22 75 -9.3 15.3
03:05 1023 30.21 852 25.16 -5.5 22 75 -9.2 15.4
03:10 1023 30.21 852 25.16 -5.5 22 75 -9.3 15.3
03:15 1023 30.21 852 25.16 -5.6 21.9 75 -9.3 15.2
03:20 1023 30.21 852 25.16 -5.6 22 75 -9.3 15.3
03:25 1023 30.21 852 25.16 -5.5 22.2 76 -9.1 15.7
03:30 1023 30.21 852 25.16 -5.4 22.4 76 -8.9 15.9
03:35 1023 30.21 852 25.16 -5.3 22.5 76 -8.9 15.9
03:40 1023 30.21 852 25.16 -5.3 22.5 75 -9 15.9
03:45 1023 30.21 852 25.16 -5.2 22.6 75 -8.9 15.9
03:50 1023 30.21 852 25.16 -5.3 22.4 76 -8.9 16
03:55 1023 30.21 852 25.16 -5.3 22.5 76 -8.9 16
04:00 1023 30.21 852 25.16 -5.3 22.5 76 -8.8 16.1
04:05 1023 30.21 852 25.16 -5.2 22.6 77 -8.6 16.4
04:10 1023 30.21 852 25.16 -5.2 22.7 77 -8.6 16.5
04:15 1023 30.21 852 25.16 -5.1 22.8 76 -8.6 16.5
04:20 1023 30.21 852 25.16 -5 22.9 76 -8.7 16.4
04:25 1023 30.21 852 25.16 -5 23 76 -8.6 16.6
04:30 1023 30.21 852 25.16 -5 23 76 -8.6 16.5
04:35 1023 30.21 852 25.16 -5.1 22.9 76 -8.7 16.4
04:40 1023 30.21 852 25.16 -5.1 22.9 76 -8.7 16.3
04:45 1023 30.21 852 25.16 -5.1 22.8 75 -8.8 16.1
04:50 1023 30.21 852 25.16 -5.1 22.8 76 -8.8 16.2
04:55 1023 30.21 852 25.16 -5.2 22.7 75 -8.9 16
05:00 1023 30.21 852 25.16 -5.3 22.5 75 -9 15.7
05:05 1023 30.21 852 25.16 -5.4 22.3 76 -9 15.8
05:10 1023 30.21 852 25.16 -5.5 22.1 76 -9 15.7
05:15 1023 30.21 852 25.16 -5.5 22.1 76 -9.1 15.6
05:20 1023 30.21 852 25.16 -5.5 22 76 -9.2 15.5
05:25 1023 30.21 852 25.16 -5.5 22 76 -9.2 15.5
05:30 1022 30.18 852 25.16 -5.6 22 76 -9.2 15.5
05:35 1022 30.18 852 25.16 -5.7 21.8 76 -9.3 15.3
05:40 1022 30.18 852 25.16 -5.7 21.8 76 -9.2 15.4
05:45 1022 30.18 852 25.16 -5.7 21.8 76 -9.3 15.3
05:50 1022 30.18 852 25.16 -5.7 21.7 76 -9.2 15.4
05:55 1022 30.18 852 25.16 -5.8 21.6 77 -9.2 15.4
06:00 1022 30.18 852 25.16 -5.8 21.6 76 -9.3 15.3
06:05 1022 30.18 852 25.16 -5.7 21.7 77 -9.2 15.5
06:10 1022 30.18 852 25.16 -5.6 21.9 77 -9.1 15.6
06:15 1022 30.18 852 25.16 -5.6 21.9 77 -9.1 15.7
06:20 1022 30.18 852 25.16 -5.6 21.9 76 -9.1 15.6
06:25 1022 30.18 852 25.16 -5.5 22 76 -9.1 15.6
06:30 1022 30.18 851 25.13 -5.4 22.2 76 -9 15.8
06:35 1022 30.18 851 25.13 -5.4 22.3 76 -9 15.9
06:40 1022 30.18 851 25.13 -5.4 22.4 76 -8.9 16
06:45 1022 30.18 851 25.13 -5.3 22.4 77 -8.8 16.1
06:50 1022 30.18 851 25.13 -5.3 22.5 77 -8.7 16.3
06:55 1022 30.18 851 25.13 -5.3 22.5 76 -8.8 16.1
07:00 1022 30.18 851 25.13 -5.4 22.4 76 -8.9 16
07:05 1022 30.18 852 25.16 -5.4 22.3 77 -8.9 16
07:10 1022 30.18 852 25.16 -5.4 22.3 77 -8.9 16
07:15 1022 30.18 852 25.16 -5.4 22.3 77 -8.9 16
07:20 1022 30.18 852 25.16 -5.4 22.3 77 -8.9 16.1
07:25 1022 30.18 851 25.13 -5.4 22.2 77 -8.9 15.9
07:30 1022 30.18 851 25.13 -5.4 22.2 77 -8.8 16.2
07:35 1022 30.18 851 25.13 -5.4 22.3 77 -8.8 16.2
07:40 1022 30.18 851 25.13 -5.4 22.4 77 -8.8 16.2
07:45 1022 30.18 851 25.13 -5.3 22.4 78 -8.7 16.4
07:50 1022 30.18 851 25.13 -5.3 22.4 77 -8.7 16.3
07:55 1022 30.18 851 25.13 -5.3 22.4 77 -8.7 16.3
08:00 1022 30.18 851 25.13 -5.3 22.4 77 -8.8 16.2
08:05 1022 30.18 851 25.13 -5.3 22.4 77 -8.7 16.3
08:10 1022 30.18 851 25.13 -5.3 22.4 77 -8.7 16.3
08:15 1022 30.18 851 25.13 -5.3 22.4 77 -8.7 16.4
08:20 1022 30.18 851 25.13 -5.4 22.2 77 -8.8 16.1
08:25 1022 30.18 851 25.13 -5.6 21.9 78 -8.9 15.9
08:30 1022 30.18 851 25.13 -5.7 21.7 78 -9 15.8
08:35 1022 30.18 851 25.13 -5.6 21.8 77 -9 15.8
08:40 1022 30.18 851 25.13 -5.5 22.1 77 -8.9 15.9
08:45 1022 30.18 851 25.13 -5.5 22.2 77 -8.9 16
08:50 1022 30.18 851 25.13 -5.5 22.1 77 -8.8 16.1
08:55 1022 30.18 851 25.13 -5.5 22 77 -8.9 15.9
09:00 1022 30.18 851 25.13 -5.6 22 77 -9 15.8
09:05 1022 30.18 851 25.13 -5.6 22 77 -9 15.7
09:10 1022 30.18 852 25.16 -5.6 22 77 -8.9 15.9
09:15 1022 30.18 852 25.16 -5.6 22 78 -8.9 16
09:20 1022 30.18 852 25.16 -5.6 21.9 77 -8.9 15.9
09:25 1022 30.18 852 25.16 -5.6 21.9 77 -9 15.8
09:30 1023 30.21 852 25.16 -5.7 21.8 77 -9 15.7
09:35 1023 30.21 852 25.16 -5.7 21.8 78 -9 15.8
09:40 1023 30.21 852 25.16 -5.6 21.9 77 -9 15.9
09:45 1023 30.21 852 25.16 -5.6 21.9 76 -9.1 15.6
09:50 1023 30.21 852 25.16 -5.7 21.7 77 -9.1 15.6
09:55 1023 30.21 852 25.16 -5.7 21.7 77 -9.2 15.4
10:00 1023 30.21 852 25.16 -5.7 21.7 77 -9.2 15.5
10:05 1023 30.21 852 25.16 -5.7 21.7 77 -9.1 15.7
10:10 1023 30.21 852 25.16 -5.6 21.9 77 -9 15.9
10:15 1023 30.21 852 25.16 -5.5 22.1 78 -8.8 16.1
10:20 1023 30.21 852 25.16 -5.3 22.5 77 -8.7 16.3
10:25 1023 30.21 852 25.16 -5.2 22.7 76 -8.8 16.1
10:30 1023 30.21 852 25.16 -5.1 22.8 76 -8.8 16.2
10:35 1023 30.21 852 25.16 -5 22.9 76 -8.6 16.5
10:40 1023 30.21 852 25.16 -4.9 23.2 75 -8.7 16.4
10:45 1023 30.21 852 25.16 -4.8 23.3 76 -8.5 16.8
10:50 1023 30.21 852 25.16 -4.8 23.4 75 -8.5 16.6
10:55 1023 30.21 852 25.16 -5 23 76 -8.6 16.6
11:00 1023 30.21 852 25.16 -5.1 22.9 75 -8.8 16.2
11:05 1023 30.21 852 25.16 -4.7 23.5 74 -8.7 16.4
11:10 1023 30.21 852 25.16 -4.4 24 73 -8.6 16.6
11:15 1023 30.21 852 25.16 -3.8 25.1 70 -8.5 16.8
11:20 1023 30.21 852 25.16 -3.6 25.6 69 -8.4 16.8
11:25 1023 30.21 853 25.19 -3.4 25.9 68 -8.5 16.6
11:30 1023 30.21 852 25.16 -3 26.7 67 -8.3 17.1
11:35 1023 30.21 853 25.19 -2.7 27.1 66 -8.2 17.3
11:40 1023 30.21 853 25.19 -2 28.5 64 -8 17.7
11:45 1023 30.21 853 25.19 -2.1 28.2 64 -8 17.5
11:50 1023 30.21 853 25.19 -2.4 27.7 65 -8.1 17.4
11:55 1023 30.21 853 25.19 -2.4 27.8 65 -8 17.5
12:00 1023 30.21 852 25.16 -2.8 27 70 -7.5 18.5
12:05 1023 30.21 852 25.16 -3.4 25.8 73 -7.6 18.3
12:10 1023 30.21 852 25.16 -3.4 25.8 72 -7.8 17.9
12:15 1023 30.21 852 25.16 -3.4 25.9 72 -7.8 18
12:20 1023 30.21 852 25.16 -2.8 27 68 -8 17.7
12:25 1023 30.21 852 25.16 -2.7 27.1 68 -7.8 17.9
12:30 1023 30.21 852 25.16 -3.1 26.5 70 -7.8 18
12:35 1023 30.21 852 25.16 -3 26.6 69 -7.9 17.8
12:40 1023 30.21 852 25.16 -2.7 27.1 69 -7.7 18.1
12:45 1023 30.21 852 25.16 -2.7 27.1 69 -7.7 18.1
12:50 1023 30.21 852 25.16 -2.5 27.5 67 -7.9 17.8
12:55 1023 30.21 852 25.16 -1.9 28.5 66 -7.4 18.6
13:00 1023 30.21 852 25.16 -1.4 29.6 62 -7.8 18
13:05 1023 30.21 852 25.16 -1.1 30 65 -6.9 19.6
13:10 1022 30.18 852 25.16 -1.6 29.1 66 -7.2 19
13:15 1022 30.18 852 25.16 -1.8 28.7 66 -7.4 18.7
13:20 1022 30.18 852 25.16 -1.4 29.5 64 -7.3 18.8
13:25 1022 30.18 852 25.16 -1.1 30 64 -7 19.4
13:30 1022 30.18 852 25.16 -0.8 30.5 62 -7.1 19.1
13:35 1022 30.18 851 25.13 -0.5 31.2 61 -7 19.4
13:40 1022 30.18 851 25.13 -0.3 31.5 62 -6.6 20.1
13:45 1022 30.18 851 25.13 -0.3 31.5 63 -6.5 20.2
13:50 1022 30.18 851 25.13 -0.3 31.5 63 -6.5 20.2
13:55 1022 30.18 851 25.13 -0.7 30.7 65 -6.4 20.4
14:00 1022 30.18 851 25.13 -0.8 30.5 64 -6.8 19.8
14:05 1022 30.18 851 25.13 -0.2 31.6 62 -6.7 19.9
14:10 1022 30.18 851 25.13 0.2 32.4 61 -6.4 20.5
14:15 1022 30.18 851 25.13 0 32.1 64 -6.1 21.1
14:20 1022 30.18 851 25.13 -0.2 31.6 64 -6.2 20.9
14:25 1022 30.18 851 25.13 -0.1 31.8 63 -6.3 20.7
14:30 1022 30.18 851 25.13 -0.1 31.8 64 -6.1 21
14:35 1022 30.18 851 25.13 0.1 32.2 65 -5.8 21.6
14:40 1022 30.18 851 25.13 0.2 32.4 63 -6.1 21.1
14:45 1022 30.18 851 25.13 0.5 33 63 -5.7 21.7
14:50 1022 30.18 851 25.13 0.8 33.5 62 -5.7 21.7
14:55 1022 30.18 851 25.13 0.9 33.6 60 -6 21.3
15:00 1022 30.18 851 25.13 1.1 34 61 -5.6 22
15:05 1022 30.18 851 25.13 0.8 33.4 61 -5.8 21.6
15:10 1022 30.18 851 25.13 0.3 32.5 66 -5.3 22.4
15:15 1022 30.18 851 25.13 0.6 33.1 63 -5.7 21.7
15:20 1022 30.18 851 25.13 1.3 34.3 61 -5.4 22.3
15:25 1022 30.18 851 25.13 1.3 34.3 60 -5.7 21.7
15:30 1022 30.18 851 25.13 1.3 34.4 62 -5.2 22.6
15:35 1022 30.18 851 25.13 1.2 34.1 61 -5.5 22
15:40 1022 30.18 851 25.13 0.8 33.5 60 -6 21.3
15:45 1022 30.18 851 25.13 0.9 33.6 62 -5.7 21.8
15:50 1022 30.18 851 25.13 0.5 32.8 63 -5.8 21.5
15:55 1022 30.18 851 25.13 0.3 32.6 64 -5.7 21.7
16:00 1022 30.18 851 25.13 0.1 32.2 63 -6 21.2
16:05 1022 30.18 851 25.13 -0.1 31.9 66 -5.7 21.8
16:10 1022 30.18 851 25.13 -0 31.9 66 -5.6 21.9
16:15 1022 30.18 851 25.13 -0.2 31.7 66 -5.7 21.7
16:20 1022 30.18 851 25.13 -0.5 31.2 66 -6 21.2
16:25 1022 30.18 851 25.13 -0.2 31.7 64 -6.1 21
16:30 1022 30.18 851 25.13 0.1 32.1 64 -5.9 21.4
16:35 1022 30.18 851 25.13 -0.5 31 67 -5.8 21.5
16:40 1022 30.18 851 25.13 -1.3 29.7 69 -6.2 20.9
16:45 1022 30.18 851 25.13 -0.7 30.8 68 -5.9 21.3
16:50 1022 30.18 851 25.13 -0.5 31.1 66 -6 21.1
16:55 1022 30.18 851 25.13 -0.3 31.4 66 -5.9 21.4
17:00 1022 30.18 851 25.13 -0.3 31.5 67 -5.7 21.8
17:05 1022 30.18 851 25.13 -0.9 30.5 69 -5.9 21.4
17:10 1022 30.18 851 25.13 -0.8 30.6 69 -5.9 21.4
17:15 1022 30.18 851 25.13 -1.1 30 69 -6 21.2
17:20 1022 30.18 851 25.13 -0.8 30.6 68 -5.9 21.4
17:25 1022 30.18 851 25.13 -0.6 30.9 69 -5.7 21.8
17:30 1022 30.18 851 25.13 -1 30.2 71 -5.6 21.9
17:35 1022 30.18 851 25.13 -1.3 29.7 71 -5.9 21.5
17:40 1022 30.18 851 25.13 -1.5 29.3 72 -5.9 21.3
17:45 1022 30.18 851 25.13 -1.7 28.9 73 -5.9 21.3
17:50 1022 30.18 851 25.13 -2 28.5 74 -6 21.1
17:55 1022 30.18 851 25.13 -2.1 28.2 75 -6.1 21.1
18:00 1022 30.18 851 25.13 -2.2 28 75 -6.1 21.1
18:05 1022 30.18 851 25.13 -2.3 27.9 75 -6.2 20.9
18:10 1022 30.18 851 25.13 -2.4 27.7 75 -6.3 20.7
18:15 1022 30.18 851 25.13 -2.6 27.3 75 -6.4 20.5
18:20 1022 30.18 851 25.13 -2.7 27.2 76 -6.4 20.5
18:25 1022 30.18 851 25.13 -2.7 27.1 76 -6.5 20.4
18:30 1022 30.18 851 25.13 -2.7 27.1 76 -6.4 20.5
18:35 1022 30.18 852 25.16 -2.8 26.9 77 -6.3 20.6
18:40 1022 30.18 852 25.16 -3 26.6 77 -6.5 20.4
18:45 1022 30.18 852 25.16 -3.1 26.4 77 -6.5 20.2
18:50 1022 30.18 852 25.16 -3.3 26.2 79 -6.4 20.4
18:55 1023 30.21 852 25.16 -3.3 26.1 79 -6.5 20.4
19:00 1023 30.21 852 25.16 -3.5 25.8 79 -6.5 20.2
19:05 1023 30.21 852 25.16 -3.3 26.1 79 -6.4 20.4
19:10 1023 30.21 852 25.16 -3 26.7 78 -6.3 20.6
19:15 1023 30.21 852 25.16 -2.8 26.9 78 -6.2 20.8
19:20 1023 30.21 852 25.16 -2.9 26.8 79 -6 21.1
19:25 1023 30.21 852 25.16 -2.9 26.8 78 -6.2 20.9
19:30 1023 30.21 852 25.16 -3 26.6 79 -6.1 21
19:35 1023 30.21 852 25.16 -3.1 26.4 80 -6.1 21.1
19:40 1023 30.21 852 25.16 -3 26.7 80 -6 21.2
19:45 1023 30.21 852 25.16 -2.9 26.7 80 -6 21.2
19:50 1023 30.21 852 25.16 -2.9 26.8 81 -5.8 21.6
19:55 1023 30.21 852 25.16 -3 26.7 79 -6.1 21.1
20:00 1023 30.21 852 25.16 -3.2 26.2 80 -6.2 20.8
20:05 1023 30.21 852 25.16 -3.2 26.3 80 -6.1 20.9
20:10 1023 30.21 852 25.16 -3.1 26.4 80 -6.1 21
20:15 1023 30.21 852 25.16 -3.2 26.3 80 -6.2 20.9
20:20 1023 30.21 852 25.16 -3.2 26.3 80 -6.1 21
20:25 1023 30.21 852 25.16 -3.1 26.4 79 -6.2 20.9
20:30 1023 30.21 852 25.16 -3.2 26.2 80 -6.2 20.8
20:35 1023 30.21 852 25.16 -3.4 25.9 82 -6.1 21
20:40 1023 30.21 852 25.16 -3.3 26 81 -6.1 21
20:45 1023 30.21 852 25.16 -3.2 26.2 80 -6.1 21
20:50 1023 30.21 852 25.16 -3.2 26.2 81 -6.1 21
20:55 1023 30.21 852 25.16 -3.2 26.2 81 -6 21.2
21:00 1023 30.21 852 25.16 -3.2 26.3 81 -6 21.2
21:05 1023 30.21 852 25.16 -3.2 26.3 81 -5.9 21.3
21:10 1023 30.21 852 25.16 -3.1 26.3 82 -5.8 21.5
21:15 1023 30.21 852 25.16 -3 26.6 81 -5.8 21.6
21:20 1023 30.21 852 25.16 -2.9 26.7 82 -5.6 21.9
21:25 1023 30.21 852 25.16 -2.9 26.8 82 -5.6 21.9
21:30 1023 30.21 852 25.16 -2.9 26.7 82 -5.5 22
21:35 1023 30.21 852 25.16 -2.9 26.8 83 -5.5 22.2
21:40 1023 30.21 852 25.16 -2.8 27 82 -5.4 22.2
21:45 1023 30.21 852 25.16 -2.9 26.7 83 -5.4 22.3
21:50 1023 30.21 852 25.16 -3.1 26.5 84 -5.4 22.3
21:55 1023 30.21 852 25.16 -3.1 26.5 84 -5.4 22.3
22:00 1023 30.21 852 25.16 -3 26.5 84 -5.4 22.3
22:05 1023 30.21 852 25.16 -2.9 26.8 84 -5.3 22.4
22:10 1023 30.21 852 25.16 -2.9 26.8 84 -5.2 22.6
22:15 1023 30.21 852 25.16 -2.8 26.9 84 -5.2 22.6
22:20 1023 30.21 852 25.16 -2.8 26.9 84 -5.1 22.8
22:25 1023 30.21 853 25.19 -2.8 26.9 85 -5 23
22:30 1023 30.21 853 25.19 -2.7 27.2 85 -4.8 23.3
22:35 1023 30.21 853 25.19 -2.6 27.2 85 -4.8 23.4
22:40 1023 30.21 853 25.19 -2.6 27.4 85 -4.7 23.5
22:45 1023 30.21 853 25.19 -2.5 27.5 86 -4.6 23.7
22:50 1023 30.21 853 25.19 -2.4 27.6 85 -4.6 23.6
22:55 1023 30.21 853 25.19 -2.5 27.6 85 -4.7 23.6
23:00 1023 30.21 853 25.19 -2.5 27.5 85 -4.7 23.5
23:05 1023 30.21 853 25.19 -2.7 27.2 85 -4.8 23.4
23:10 1024 30.24 853 25.19 -2.7 27.1 86 -4.8 23.3
23:15 1024 30.24 853 25.19 -2.8 27 86 -4.8 23.4
23:20 1024 30.24 853 25.19 -2.9 26.9 86 -4.8 23.3
23:25 1024 30.24 853 25.19 -2.9 26.9 87 -4.8 23.4
23:30 1024 30.24 853 25.19 -2.8 26.9 86 -4.8 23.4
23:35 1024 30.24 853 25.19 -2.9 26.8 87 -4.8 23.4
23:40 1024 30.24 853 25.19 -2.8 27 88 -4.6 23.8
23:45 1024 30.24 853 25.19 -2.7 27.2 87 -4.5 23.9
23:50 1024 30.24 853 25.19 -2.6 27.3 87 -4.5 23.9
23:55 1024 30.24 853 25.19 -2.5 27.5 87 -4.4 24
24:00 1024 30.24 853 25.19 -2.3 27.9 86 -4.3 24.3